sensor_id;sensor_type;location;lat;lon;timestamp;temperature;humidity
12700;DHT22;6414;49.570;6.060;2023-04-06T00:02:19;3.20;1.00
12700;DHT22;6414;49.570;6.060;2023-04-06T00:05:05;3.20;1.00
12700;DHT22;6414;49.570;6.060;2023-04-06T00:07:51;3.10;1.00
12700;DHT22;6414;49.570;6.060;2023-04-06T00:10:37;3.00;1.00
12700;DHT22;6414;49.570;6.060;2023-04-06T00:13:23;2.90;49.70
12700;DHT22;6414;49.570;6.060;2023-04-06T00:16:10;2.70;99.00
12700;DHT22;6414;49.570;6.060;2023-04-06T00:18:56;2.70;95.20
12700;DHT22;6414;49.570;6.060;2023-04-06T00:21:42;2.70;99.90
12700;DHT22;6414;49.570;6.060;2023-04-06T00:24:28;2.70;99.90
12700;DHT22;6414;49.570;6.060;2023-04-06T00:27:15;2.90;64.20
12700;DHT22;6414;49.570;6.060;2023-04-06T00:30:02;2.80;1.00
12700;DHT22;6414;49.570;6.060;2023-04-06T00:32:48;2.80;12.70
12700;DHT22;6414;49.570;6.060;2023-04-06T00:35:34;2.80;7.00
12700;DHT22;6414;49.570;6.060;2023-04-06T00:38:20;2.80;31.30
12700;DHT22;6414;49.570;6.060;2023-04-06T00:41:06;2.90;16.20
12700;DHT22;6414;49.570;6.060;2023-04-06T00:43:53;3.00;10.10
12700;DHT22;6414;49.570;6.060;2023-04-06T00:46:38;3.00;1.00
12700;DHT22;6414;49.570;6.060;2023-04-06T00:49:24;3.00;1.00
12700;DHT22;6414;49.570;6.060;2023-04-06T00:52:10;3.00;1.00
12700;DHT22;6414;49.570;6.060;2023-04-06T00:54:57;3.00;1.00
12700;DHT22;6414;49.570;6.060;2023-04-06T00:57:43;3.00;16.20
12700;DHT22;6414;49.570;6.060;2023-04-06T01:00:30;3.00;1.00
12700;DHT22;6414;49.570;6.060;2023-04-06T01:03:16;2.90;1.00
12700;DHT22;6414;49.570;6.060;2023-04-06T01:06:02;2.90;1.00
12700;DHT22;6414;49.570;6.060;2023-04-06T01:08:49;2.80;6.90
12700;DHT22;6414;49.570;6.060;2023-04-06T01:11:35;2.80;1.30
12700;DHT22;6414;49.570;6.060;2023-04-06T01:14:21;2.80;1.00
12700;DHT22;6414;49.570;6.060;2023-04-06T01:17:06;2.80;17.70
12700;DHT22;6414;49.570;6.060;2023-04-06T01:19:54;2.80;53.30
12700;DHT22;6414;49.570;6.060;2023-04-06T01:22:40;2.80;46.10
12700;DHT22;6414;49.570;6.060;2023-04-06T01:25:26;2.90;1.00
12700;DHT22;6414;49.570;6.060;2023-04-06T01:28:12;2.90;7.70
12700;DHT22;6414;49.570;6.060;2023-04-06T01:30:59;2.90;1.00
12700;DHT22;6414;49.570;6.060;2023-04-06T01:33:44;2.80;3.60
12700;DHT22;6414;49.570;6.060;2023-04-06T01:36:31;2.80;1.00
12700;DHT22;6414;49.570;6.060;2023-04-06T01:39:18;2.70;1.00
12700;DHT22;6414;49.570;6.060;2023-04-06T01:42:05;2.80;1.00
12700;DHT22;6414;49.570;6.060;2023-04-06T01:44:52;2.80;1.00
12700;DHT22;6414;49.570;6.060;2023-04-06T01:47:39;2.60;5.00
12700;DHT22;6414;49.570;6.060;2023-04-06T01:50:25;2.50;1.00
12700;DHT22;6414;49.570;6.060;2023-04-06T01:53:12;2.40;1.00
12700;DHT22;6414;49.570;6.060;2023-04-06T01:55:58;2.30;1.00
12700;DHT22;6414;49.570;6.060;2023-04-06T01:58:45;1.70;99.90
12700;DHT22;6414;49.570;6.060;2023-04-06T02:01:32;1.60;99.90
12700;DHT22;6414;49.570;6.060;2023-04-06T02:04:18;1.60;99.90
12700;DHT22;6414;49.570;6.060;2023-04-06T02:07:04;1.50;99.90
12700;DHT22;6414;49.570;6.060;2023-04-06T02:09:53;1.40;99.90
12700;DHT22;6414;49.570;6.060;2023-04-06T02:12:36;1.60;99.90
12700;DHT22;6414;49.570;6.060;2023-04-06T02:15:23;1.90;99.90
12700;DHT22;6414;49.570;6.060;2023-04-06T02:18:09;1.90;99.90
12700;DHT22;6414;49.570;6.060;2023-04-06T02:20:56;1.80;99.90
12700;DHT22;6414;49.570;6.060;2023-04-06T02:23:43;1.90;99.90
12700;DHT22;6414;49.570;6.060;2023-04-06T02:26:29;1.80;99.90
12700;DHT22;6414;49.570;6.060;2023-04-06T02:29:15;2.00;99.90
12700;DHT22;6414;49.570;6.060;2023-04-06T02:32:02;2.10;99.90
12700;DHT22;6414;49.570;6.060;2023-04-06T02:34:48;2.00;99.90
12700;DHT22;6414;49.570;6.060;2023-04-06T02:37:35;1.60;99.90
12700;DHT22;6414;49.570;6.060;2023-04-06T02:40:20;1.60;99.90
12700;DHT22;6414;49.570;6.060;2023-04-06T02:43:07;1.50;99.90
12700;DHT22;6414;49.570;6.060;2023-04-06T02:45:53;1.60;99.90
12700;DHT22;6414;49.570;6.060;2023-04-06T02:48:40;1.50;99.90
12700;DHT22;6414;49.570;6.060;2023-04-06T02:51:26;1.50;99.90
12700;DHT22;6414;49.570;6.060;2023-04-06T02:54:12;1.50;99.90
12700;DHT22;6414;49.570;6.060;2023-04-06T02:56:58;1.60;99.90
12700;DHT22;6414;49.570;6.060;2023-04-06T02:59:43;1.50;99.90
12700;DHT22;6414;49.570;6.060;2023-04-06T03:02:30;1.60;99.90
12700;DHT22;6414;49.570;6.060;2023-04-06T03:05:17;1.70;99.90
12700;DHT22;6414;49.570;6.060;2023-04-06T03:08:02;1.70;99.90
12700;DHT22;6414;49.570;6.060;2023-04-06T03:10:49;1.70;99.90
12700;DHT22;6414;49.570;6.060;2023-04-06T03:13:36;1.70;99.90
12700;DHT22;6414;49.570;6.060;2023-04-06T03:16:21;1.70;99.90
12700;DHT22;6414;49.570;6.060;2023-04-06T03:19:07;1.70;99.90
12700;DHT22;6414;49.570;6.060;2023-04-06T03:21:54;1.80;99.90
12700;DHT22;6414;49.570;6.060;2023-04-06T03:24:41;1.80;99.90
12700;DHT22;6414;49.570;6.060;2023-04-06T03:27:27;1.80;99.90
12700;DHT22;6414;49.570;6.060;2023-04-06T03:30:14;1.80;99.90
12700;DHT22;6414;49.570;6.060;2023-04-06T03:33:00;1.70;99.90
12700;DHT22;6414;49.570;6.060;2023-04-06T03:35:46;1.80;99.90
12700;DHT22;6414;49.570;6.060;2023-04-06T03:38:32;1.70;99.90
12700;DHT22;6414;49.570;6.060;2023-04-06T03:41:18;1.80;99.90
12700;DHT22;6414;49.570;6.060;2023-04-06T03:44:05;1.90;99.90
12700;DHT22;6414;49.570;6.060;2023-04-06T03:46:51;2.00;99.90
12700;DHT22;6414;49.570;6.060;2023-04-06T03:49:37;1.90;99.90
12700;DHT22;6414;49.570;6.060;2023-04-06T03:52:24;1.80;99.90
12700;DHT22;6414;49.570;6.060;2023-04-06T03:55:11;1.90;99.90
12700;DHT22;6414;49.570;6.060;2023-04-06T03:57:57;1.90;99.90
12700;DHT22;6414;49.570;6.060;2023-04-06T04:00:42;1.90;99.90
12700;DHT22;6414;49.570;6.060;2023-04-06T04:03:29;1.70;99.90
12700;DHT22;6414;49.570;6.060;2023-04-06T04:06:15;1.60;99.90
12700;DHT22;6414;49.570;6.060;2023-04-06T04:09:02;1.60;99.90
12700;DHT22;6414;49.570;6.060;2023-04-06T04:11:48;1.40;99.90
12700;DHT22;6414;49.570;6.060;2023-04-06T04:14:35;1.60;99.90
12700;DHT22;6414;49.570;6.060;2023-04-06T04:17:21;1.60;99.90
12700;DHT22;6414;49.570;6.060;2023-04-06T04:20:07;1.80;99.90
12700;DHT22;6414;49.570;6.060;2023-04-06T04:22:53;1.80;99.90
12700;DHT22;6414;49.570;6.060;2023-04-06T04:25:40;1.70;99.90
12700;DHT22;6414;49.570;6.060;2023-04-06T04:28:25;1.70;99.90
12700;DHT22;6414;49.570;6.060;2023-04-06T04:31:12;1.70;99.90
12700;DHT22;6414;49.570;6.060;2023-04-06T04:33:59;1.80;99.90
12700;DHT22;6414;49.570;6.060;2023-04-06T04:36:44;1.80;99.90
12700;DHT22;6414;49.570;6.060;2023-04-06T04:39:30;1.80;99.90
12700;DHT22;6414;49.570;6.060;2023-04-06T04:42:17;1.80;99.90
12700;DHT22;6414;49.570;6.060;2023-04-06T04:45:03;1.80;99.90
12700;DHT22;6414;49.570;6.060;2023-04-06T04:47:49;1.80;99.90
12700;DHT22;6414;49.570;6.060;2023-04-06T04:50:35;1.90;99.90
12700;DHT22;6414;49.570;6.060;2023-04-06T04:53:21;1.80;99.90
12700;DHT22;6414;49.570;6.060;2023-04-06T04:56:06;1.80;99.90
12700;DHT22;6414;49.570;6.060;2023-04-06T04:58:53;1.80;99.90
12700;DHT22;6414;49.570;6.060;2023-04-06T05:01:39;1.90;99.90
12700;DHT22;6414;49.570;6.060;2023-04-06T05:04:25;1.90;99.90
12700;DHT22;6414;49.570;6.060;2023-04-06T05:07:11;1.90;99.90
12700;DHT22;6414;49.570;6.060;2023-04-06T05:09:58;1.70;99.90
12700;DHT22;6414;49.570;6.060;2023-04-06T05:12:45;1.70;99.90
12700;DHT22;6414;49.570;6.060;2023-04-06T05:15:31;1.70;99.90
12700;DHT22;6414;49.570;6.060;2023-04-06T05:18:16;1.60;99.90
12700;DHT22;6414;49.570;6.060;2023-04-06T05:21:03;1.50;99.90
12700;DHT22;6414;49.570;6.060;2023-04-06T05:23:49;1.60;99.90
12700;DHT22;6414;49.570;6.060;2023-04-06T05:26:35;1.40;99.90
12700;DHT22;6414;49.570;6.060;2023-04-06T05:29:22;1.50;99.90
12700;DHT22;6414;49.570;6.060;2023-04-06T05:32:09;1.60;99.90
12700;DHT22;6414;49.570;6.060;2023-04-06T05:34:54;1.60;99.90
12700;DHT22;6414;49.570;6.060;2023-04-06T05:37:41;1.40;99.90
12700;DHT22;6414;49.570;6.060;2023-04-06T05:40:26;1.40;99.90
12700;DHT22;6414;49.570;6.060;2023-04-06T05:43:13;1.60;99.90
12700;DHT22;6414;49.570;6.060;2023-04-06T05:45:59;1.60;99.90
12700;DHT22;6414;49.570;6.060;2023-04-06T05:48:45;1.60;99.90
12700;DHT22;6414;49.570;6.060;2023-04-06T05:51:31;1.50;99.90
12700;DHT22;6414;49.570;6.060;2023-04-06T05:54:17;1.40;99.90
12700;DHT22;6414;49.570;6.060;2023-04-06T05:57:03;1.60;99.90
12700;DHT22;6414;49.570;6.060;2023-04-06T05:59:50;1.90;99.90
12700;DHT22;6414;49.570;6.060;2023-04-06T06:02:37;1.90;99.90
12700;DHT22;6414;49.570;6.060;2023-04-06T06:05:24;1.90;99.90
12700;DHT22;6414;49.570;6.060;2023-04-06T06:08:10;1.90;99.90
12700;DHT22;6414;49.570;6.060;2023-04-06T06:10:56;1.90;99.90
12700;DHT22;6414;49.570;6.060;2023-04-06T06:13:42;1.90;99.90
12700;DHT22;6414;49.570;6.060;2023-04-06T06:16:28;2.00;99.90
12700;DHT22;6414;49.570;6.060;2023-04-06T06:19:14;2.10;99.90
12700;DHT22;6414;49.570;6.060;2023-04-06T06:22:00;2.10;99.90
12700;DHT22;6414;49.570;6.060;2023-04-06T06:24:46;2.30;99.90
12700;DHT22;6414;49.570;6.060;2023-04-06T06:27:32;2.50;99.90
12700;DHT22;6414;49.570;6.060;2023-04-06T06:30:18;2.50;99.90
12700;DHT22;6414;49.570;6.060;2023-04-06T06:33:05;2.40;99.90
12700;DHT22;6414;49.570;6.060;2023-04-06T06:35:51;2.50;99.90
12700;DHT22;6414;49.570;6.060;2023-04-06T06:38:36;2.60;99.90
12700;DHT22;6414;49.570;6.060;2023-04-06T06:41:23;2.60;99.90
12700;DHT22;6414;49.570;6.060;2023-04-06T06:44:09;2.60;99.90
12700;DHT22;6414;49.570;6.060;2023-04-06T06:46:55;2.70;99.90
12700;DHT22;6414;49.570;6.060;2023-04-06T06:49:42;3.00;99.90
12700;DHT22;6414;49.570;6.060;2023-04-06T06:52:27;3.00;99.90
12700;DHT22;6414;49.570;6.060;2023-04-06T06:55:14;3.00;99.90
12700;DHT22;6414;49.570;6.060;2023-04-06T06:57:59;3.00;99.90
12700;DHT22;6414;49.570;6.060;2023-04-06T07:00:45;3.00;99.90
12700;DHT22;6414;49.570;6.060;2023-04-06T07:03:31;3.00;99.90
12700;DHT22;6414;49.570;6.060;2023-04-06T07:06:18;3.20;99.90
12700;DHT22;6414;49.570;6.060;2023-04-06T07:09:05;3.30;99.90
12700;DHT22;6414;49.570;6.060;2023-04-06T07:11:51;3.30;99.90
12700;DHT22;6414;49.570;6.060;2023-04-06T07:14:37;3.40;99.90
12700;DHT22;6414;49.570;6.060;2023-04-06T07:17:23;3.40;99.90
12700;DHT22;6414;49.570;6.060;2023-04-06T07:20:10;3.60;99.90
12700;DHT22;6414;49.570;6.060;2023-04-06T07:22:56;3.60;99.90
12700;DHT22;6414;49.570;6.060;2023-04-06T07:25:43;3.60;99.90
12700;DHT22;6414;49.570;6.060;2023-04-06T07:28:29;3.60;99.90
12700;DHT22;6414;49.570;6.060;2023-04-06T07:31:15;3.50;99.90
12700;DHT22;6414;49.570;6.060;2023-04-06T07:34:02;3.80;99.90
12700;DHT22;6414;49.570;6.060;2023-04-06T07:36:48;3.80;99.90
12700;DHT22;6414;49.570;6.060;2023-04-06T07:39:35;4.30;99.90
12700;DHT22;6414;49.570;6.060;2023-04-06T07:42:21;4.20;99.90
12700;DHT22;6414;49.570;6.060;2023-04-06T07:45:07;4.30;99.90
12700;DHT22;6414;49.570;6.060;2023-04-06T07:47:53;4.60;99.90
12700;DHT22;6414;49.570;6.060;2023-04-06T07:50:40;4.70;99.90
12700;DHT22;6414;49.570;6.060;2023-04-06T07:53:26;4.90;99.90
12700;DHT22;6414;49.570;6.060;2023-04-06T07:56:12;5.00;99.90
12700;DHT22;6414;49.570;6.060;2023-04-06T07:58:58;5.00;99.90
12700;DHT22;6414;49.570;6.060;2023-04-06T08:01:45;5.10;99.90
12700;DHT22;6414;49.570;6.060;2023-04-06T08:04:31;5.10;99.90
12700;DHT22;6414;49.570;6.060;2023-04-06T08:07:18;5.40;99.90
12700;DHT22;6414;49.570;6.060;2023-04-06T08:10:04;5.30;99.90
12700;DHT22;6414;49.570;6.060;2023-04-06T08:12:51;5.20;99.90
12700;DHT22;6414;49.570;6.060;2023-04-06T08:15:36;5.30;99.90
12700;DHT22;6414;49.570;6.060;2023-04-06T08:18:23;5.40;99.90
12700;DHT22;6414;49.570;6.060;2023-04-06T08:21:09;5.40;99.90
12700;DHT22;6414;49.570;6.060;2023-04-06T08:23:56;5.40;99.90
12700;DHT22;6414;49.570;6.060;2023-04-06T08:26:42;5.60;99.90
12700;DHT22;6414;49.570;6.060;2023-04-06T08:29:28;5.70;99.90
12700;DHT22;6414;49.570;6.060;2023-04-06T08:32:14;5.90;99.90
12700;DHT22;6414;49.570;6.060;2023-04-06T08:35:00;5.80;99.90
12700;DHT22;6414;49.570;6.060;2023-04-06T08:37:46;5.80;99.90
12700;DHT22;6414;49.570;6.060;2023-04-06T08:40:38;6.00;99.90
12700;DHT22;6414;49.570;6.060;2023-04-06T08:43:21;5.90;99.90
12700;DHT22;6414;49.570;6.060;2023-04-06T08:46:08;6.00;99.90
12700;DHT22;6414;49.570;6.060;2023-04-06T08:48:54;6.10;99.90
12700;DHT22;6414;49.570;6.060;2023-04-06T08:51:39;6.30;99.90
12700;DHT22;6414;49.570;6.060;2023-04-06T08:54:25;6.40;99.90
12700;DHT22;6414;49.570;6.060;2023-04-06T08:57:12;6.30;47.00
12700;DHT22;6414;49.570;6.060;2023-04-06T08:59:58;6.30;20.90
12700;DHT22;6414;49.570;6.060;2023-04-06T09:02:45;6.60;80.60
12700;DHT22;6414;49.570;6.060;2023-04-06T09:05:30;6.60;1.00
12700;DHT22;6414;49.570;6.060;2023-04-06T09:08:16;6.70;1.00
12700;DHT22;6414;49.570;6.060;2023-04-06T09:11:03;6.80;29.80
12700;DHT22;6414;49.570;6.060;2023-04-06T09:13:53;7.00;54.40
12700;DHT22;6414;49.570;6.060;2023-04-06T09:16:41;6.90;20.70
12700;DHT22;6414;49.570;6.060;2023-04-06T09:19:27;7.00;1.00
12700;DHT22;6414;49.570;6.060;2023-04-06T09:22:13;7.00;1.00
12700;DHT22;6414;49.570;6.060;2023-04-06T09:24:59;7.30;1.00
12700;DHT22;6414;49.570;6.060;2023-04-06T09:27:45;7.50;1.00
12700;DHT22;6414;49.570;6.060;2023-04-06T09:30:31;7.80;1.00
12700;DHT22;6414;49.570;6.060;2023-04-06T09:33:23;7.90;1.00
12700;DHT22;6414;49.570;6.060;2023-04-06T09:36:09;8.30;1.00
12700;DHT22;6414;49.570;6.060;2023-04-06T09:39:01;8.30;99.90
12700;DHT22;6414;49.570;6.060;2023-04-06T09:41:48;8.30;99.90
12700;DHT22;6414;49.570;6.060;2023-04-06T09:44:31;8.50;90.40
12700;DHT22;6414;49.570;6.060;2023-04-06T09:47:17;8.60;1.00
12700;DHT22;6414;49.570;6.060;2023-04-06T09:50:04;8.80;99.90
12700;DHT22;6414;49.570;6.060;2023-04-06T09:52:51;8.80;99.90
12700;DHT22;6414;49.570;6.060;2023-04-06T09:55:42;9.00;1.00
12700;DHT22;6414;49.570;6.060;2023-04-06T09:58:28;9.10;1.00
12700;DHT22;6414;49.570;6.060;2023-04-06T10:01:15;9.30;1.00
12700;DHT22;6414;49.570;6.060;2023-04-06T10:06:58;9.70;99.90
12700;DHT22;6414;49.570;6.060;2023-04-06T10:09:44;10.10;99.90
12700;DHT22;6414;49.570;6.060;2023-04-06T10:12:31;10.30;1.00
12700;DHT22;6414;49.570;6.060;2023-04-06T10:15:17;10.30;1.00
12700;DHT22;6414;49.570;6.060;2023-04-06T10:18:03;10.40;1.00
12700;DHT22;6414;49.570;6.060;2023-04-06T10:21:11;10.40;1.00
12700;DHT22;6414;49.570;6.060;2023-04-06T10:24:00;10.30;99.90
12700;DHT22;6414;49.570;6.060;2023-04-06T10:27:08;10.40;1.00
12700;DHT22;6414;49.570;6.060;2023-04-06T10:29:44;10.50;1.00
12700;DHT22;6414;49.570;6.060;2023-04-06T10:32:37;10.50;1.00
12700;DHT22;6414;49.570;6.060;2023-04-06T10:35:23;10.60;1.00
12700;DHT22;6414;49.570;6.060;2023-04-06T10:38:09;10.60;1.00
12700;DHT22;6414;49.570;6.060;2023-04-06T10:40:55;10.70;1.00
12700;DHT22;6414;49.570;6.060;2023-04-06T10:43:41;10.70;1.00
12700;DHT22;6414;49.570;6.060;2023-04-06T10:46:29;10.50;1.00
12700;DHT22;6414;49.570;6.060;2023-04-06T10:49:13;10.40;1.00
12700;DHT22;6414;49.570;6.060;2023-04-06T10:52:00;10.20;1.00
12700;DHT22;6414;49.570;6.060;2023-04-06T10:54:46;10.20;1.00
12700;DHT22;6414;49.570;6.060;2023-04-06T10:57:32;10.10;1.00
12700;DHT22;6414;49.570;6.060;2023-04-06T11:00:20;10.20;41.80
12700;DHT22;6414;49.570;6.060;2023-04-06T11:03:06;10.20;28.10
12700;DHT22;6414;49.570;6.060;2023-04-06T11:05:53;10.30;19.00
12700;DHT22;6414;49.570;6.060;2023-04-06T11:08:39;10.30;17.20
12700;DHT22;6414;49.570;6.060;2023-04-06T11:11:26;10.50;99.90
12700;DHT22;6414;49.570;6.060;2023-04-06T11:14:12;10.60;99.90
12700;DHT22;6414;49.570;6.060;2023-04-06T11:16:58;10.60;99.90
12700;DHT22;6414;49.570;6.060;2023-04-06T11:19:45;10.60;36.20
12700;DHT22;6414;49.570;6.060;2023-04-06T11:22:31;10.80;1.00
12700;DHT22;6414;49.570;6.060;2023-04-06T11:25:18;10.80;1.00
12700;DHT22;6414;49.570;6.060;2023-04-06T11:28:04;10.40;1.00
12700;DHT22;6414;49.570;6.060;2023-04-06T11:30:51;10.60;1.00
12700;DHT22;6414;49.570;6.060;2023-04-06T11:33:37;10.60;1.00
12700;DHT22;6414;49.570;6.060;2023-04-06T11:36:23;10.30;1.00
12700;DHT22;6414;49.570;6.060;2023-04-06T11:39:10;10.20;99.90
12700;DHT22;6414;49.570;6.060;2023-04-06T11:42:00;10.00;1.00
12700;DHT22;6414;49.570;6.060;2023-04-06T11:44:45;10.00;1.00
12700;DHT22;6414;49.570;6.060;2023-04-06T11:47:35;10.00;1.00
12700;DHT22;6414;49.570;6.060;2023-04-06T11:50:21;9.70;1.00
12700;DHT22;6414;49.570;6.060;2023-04-06T11:53:07;9.50;1.00
12700;DHT22;6414;49.570;6.060;2023-04-06T11:55:53;9.50;1.00
12700;DHT22;6414;49.570;6.060;2023-04-06T11:58:39;9.40;1.00
12700;DHT22;6414;49.570;6.060;2023-04-06T12:01:25;9.50;99.90
12700;DHT22;6414;49.570;6.060;2023-04-06T12:04:12;9.00;99.90
12700;DHT22;6414;49.570;6.060;2023-04-06T12:06:58;8.70;99.90
12700;DHT22;6414;49.570;6.060;2023-04-06T12:09:44;8.70;99.90
12700;DHT22;6414;49.570;6.060;2023-04-06T12:12:31;8.90;99.90
12700;DHT22;6414;49.570;6.060;2023-04-06T12:15:17;8.90;99.90
12700;DHT22;6414;49.570;6.060;2023-04-06T12:18:03;8.90;99.90
12700;DHT22;6414;49.570;6.060;2023-04-06T12:20:49;8.90;99.90
12700;DHT22;6414;49.570;6.060;2023-04-06T12:23:35;8.90;99.90
12700;DHT22;6414;49.570;6.060;2023-04-06T12:26:21;8.90;99.90
12700;DHT22;6414;49.570;6.060;2023-04-06T12:29:07;9.40;99.90
12700;DHT22;6414;49.570;6.060;2023-04-06T12:31:54;9.40;99.90
12700;DHT22;6414;49.570;6.060;2023-04-06T12:34:41;9.00;99.90
12700;DHT22;6414;49.570;6.060;2023-04-06T12:37:28;9.20;99.90
12700;DHT22;6414;49.570;6.060;2023-04-06T12:40:14;9.00;99.90
12700;DHT22;6414;49.570;6.060;2023-04-06T12:43:00;9.00;99.90
12700;DHT22;6414;49.570;6.060;2023-04-06T12:45:46;8.80;99.90
12700;DHT22;6414;49.570;6.060;2023-04-06T12:48:33;8.50;99.90
12700;DHT22;6414;49.570;6.060;2023-04-06T12:51:19;8.40;99.90
12700;DHT22;6414;49.570;6.060;2023-04-06T12:54:06;8.20;99.90
12700;DHT22;6414;49.570;6.060;2023-04-06T12:56:52;8.20;99.90
12700;DHT22;6414;49.570;6.060;2023-04-06T12:59:42;8.20;99.90
12700;DHT22;6414;49.570;6.060;2023-04-06T13:02:26;8.10;99.90
12700;DHT22;6414;49.570;6.060;2023-04-06T13:05:13;8.10;99.90
12700;DHT22;6414;49.570;6.060;2023-04-06T13:07:59;8.20;99.90
12700;DHT22;6414;49.570;6.060;2023-04-06T13:10:48;8.30;99.90
12700;DHT22;6414;49.570;6.060;2023-04-06T13:13:33;8.00;99.90
12700;DHT22;6414;49.570;6.060;2023-04-06T13:16:19;8.10;99.90
12700;DHT22;6414;49.570;6.060;2023-04-06T13:19:06;7.90;99.90
12700;DHT22;6414;49.570;6.060;2023-04-06T13:21:52;7.90;99.90
12700;DHT22;6414;49.570;6.060;2023-04-06T13:24:40;7.90;99.90
12700;DHT22;6414;49.570;6.060;2023-04-06T13:27:26;7.80;99.90
12700;DHT22;6414;49.570;6.060;2023-04-06T13:30:13;7.80;99.90
12700;DHT22;6414;49.570;6.060;2023-04-06T13:32:59;7.80;99.90
12700;DHT22;6414;49.570;6.060;2023-04-06T13:35:46;7.80;99.90
12700;DHT22;6414;49.570;6.060;2023-04-06T13:38:31;7.70;99.90
12700;DHT22;6414;49.570;6.060;2023-04-06T13:41:21;7.50;99.90
12700;DHT22;6414;49.570;6.060;2023-04-06T13:44:07;7.50;99.90
12700;DHT22;6414;49.570;6.060;2023-04-06T13:46:53;7.40;99.90
12700;DHT22;6414;49.570;6.060;2023-04-06T13:49:40;7.50;99.90
12700;DHT22;6414;49.570;6.060;2023-04-06T13:52:26;7.50;99.90
12700;DHT22;6414;49.570;6.060;2023-04-06T13:55:12;7.40;99.90
12700;DHT22;6414;49.570;6.060;2023-04-06T13:57:59;7.20;99.90
12700;DHT22;6414;49.570;6.060;2023-04-06T14:00:46;7.20;99.90
12700;DHT22;6414;49.570;6.060;2023-04-06T14:03:33;7.20;99.90
12700;DHT22;6414;49.570;6.060;2023-04-06T14:06:19;7.10;99.90
12700;DHT22;6414;49.570;6.060;2023-04-06T14:09:06;7.30;99.90
12700;DHT22;6414;49.570;6.060;2023-04-06T14:11:53;7.20;99.90
12700;DHT22;6414;49.570;6.060;2023-04-06T14:14:39;7.20;99.90
12700;DHT22;6414;49.570;6.060;2023-04-06T14:17:26;7.30;99.90
12700;DHT22;6414;49.570;6.060;2023-04-06T14:20:12;7.30;99.90
12700;DHT22;6414;49.570;6.060;2023-04-06T14:23:02;7.30;99.90
12700;DHT22;6414;49.570;6.060;2023-04-06T14:25:48;7.40;99.90
12700;DHT22;6414;49.570;6.060;2023-04-06T14:28:35;7.40;99.90
12700;DHT22;6414;49.570;6.060;2023-04-06T14:31:21;7.30;99.90
12700;DHT22;6414;49.570;6.060;2023-04-06T14:34:07;7.30;99.90
12700;DHT22;6414;49.570;6.060;2023-04-06T14:36:53;7.40;99.90
12700;DHT22;6414;49.570;6.060;2023-04-06T14:39:39;7.30;99.90
12700;DHT22;6414;49.570;6.060;2023-04-06T14:42:25;7.20;99.90
12700;DHT22;6414;49.570;6.060;2023-04-06T14:45:11;7.20;99.90
12700;DHT22;6414;49.570;6.060;2023-04-06T14:47:58;7.10;99.90
12700;DHT22;6414;49.570;6.060;2023-04-06T14:50:56;7.10;99.90
12700;DHT22;6414;49.570;6.060;2023-04-06T14:53:39;7.10;99.90
12700;DHT22;6414;49.570;6.060;2023-04-06T14:56:25;7.10;99.90
12700;DHT22;6414;49.570;6.060;2023-04-06T14:59:11;6.90;99.90
12700;DHT22;6414;49.570;6.060;2023-04-06T15:01:58;6.90;99.90
12700;DHT22;6414;49.570;6.060;2023-04-06T15:04:45;6.90;99.90
12700;DHT22;6414;49.570;6.060;2023-04-06T15:07:31;6.90;99.90
12700;DHT22;6414;49.570;6.060;2023-04-06T15:10:17;6.90;99.90
12700;DHT22;6414;49.570;6.060;2023-04-06T15:13:04;6.90;99.90
12700;DHT22;6414;49.570;6.060;2023-04-06T15:15:50;6.90;99.90
12700;DHT22;6414;49.570;6.060;2023-04-06T15:18:36;7.00;99.90
12700;DHT22;6414;49.570;6.060;2023-04-06T15:21:22;6.90;99.90
12700;DHT22;6414;49.570;6.060;2023-04-06T15:24:08;7.00;99.90
12700;DHT22;6414;49.570;6.060;2023-04-06T15:26:54;7.00;99.90
12700;DHT22;6414;49.570;6.060;2023-04-06T15:29:40;7.00;99.90
12700;DHT22;6414;49.570;6.060;2023-04-06T15:32:27;7.10;99.90
12700;DHT22;6414;49.570;6.060;2023-04-06T15:35:13;7.00;99.90
12700;DHT22;6414;49.570;6.060;2023-04-06T15:37:59;7.00;99.90
12700;DHT22;6414;49.570;6.060;2023-04-06T15:40:46;6.90;99.90
12700;DHT22;6414;49.570;6.060;2023-04-06T15:43:31;6.90;99.90
12700;DHT22;6414;49.570;6.060;2023-04-06T15:46:18;6.90;99.90
12700;DHT22;6414;49.570;6.060;2023-04-06T15:49:04;6.90;99.90
12700;DHT22;6414;49.570;6.060;2023-04-06T15:51:50;6.90;99.90
12700;DHT22;6414;49.570;6.060;2023-04-06T15:54:36;7.00;99.90
12700;DHT22;6414;49.570;6.060;2023-04-06T15:57:22;7.00;99.90
12700;DHT22;6414;49.570;6.060;2023-04-06T16:00:08;6.90;99.90
12700;DHT22;6414;49.570;6.060;2023-04-06T16:02:55;7.00;99.90
12700;DHT22;6414;49.570;6.060;2023-04-06T16:05:41;7.00;99.90
12700;DHT22;6414;49.570;6.060;2023-04-06T16:08:28;7.00;99.90
12700;DHT22;6414;49.570;6.060;2023-04-06T16:11:15;6.90;99.90
12700;DHT22;6414;49.570;6.060;2023-04-06T16:14:01;6.90;99.90
12700;DHT22;6414;49.570;6.060;2023-04-06T16:16:48;6.90;99.90
12700;DHT22;6414;49.570;6.060;2023-04-06T16:19:35;6.90;99.90
12700;DHT22;6414;49.570;6.060;2023-04-06T16:22:21;7.00;99.90
12700;DHT22;6414;49.570;6.060;2023-04-06T16:25:07;7.00;99.90
12700;DHT22;6414;49.570;6.060;2023-04-06T16:27:53;7.00;99.90
12700;DHT22;6414;49.570;6.060;2023-04-06T16:30:39;6.90;99.90
12700;DHT22;6414;49.570;6.060;2023-04-06T16:33:25;6.90;99.90
12700;DHT22;6414;49.570;6.060;2023-04-06T16:36:12;6.80;99.90
12700;DHT22;6414;49.570;6.060;2023-04-06T16:38:58;6.80;99.90
12700;DHT22;6414;49.570;6.060;2023-04-06T16:41:44;6.70;99.90
12700;DHT22;6414;49.570;6.060;2023-04-06T16:44:30;6.90;99.90
12700;DHT22;6414;49.570;6.060;2023-04-06T16:47:16;6.80;99.90
12700;DHT22;6414;49.570;6.060;2023-04-06T16:50:06;6.90;99.90
12700;DHT22;6414;49.570;6.060;2023-04-06T16:52:52;6.90;99.90
12700;DHT22;6414;49.570;6.060;2023-04-06T16:55:38;6.90;99.90
12700;DHT22;6414;49.570;6.060;2023-04-06T16:58:25;6.80;99.90
12700;DHT22;6414;49.570;6.060;2023-04-06T17:01:22;7.00;99.90
12700;DHT22;6414;49.570;6.060;2023-04-06T17:04:07;7.00;99.90
12700;DHT22;6414;49.570;6.060;2023-04-06T17:06:54;7.00;99.90
12700;DHT22;6414;49.570;6.060;2023-04-06T17:09:41;6.90;99.90
12700;DHT22;6414;49.570;6.060;2023-04-06T17:12:28;7.00;99.90
12700;DHT22;6414;49.570;6.060;2023-04-06T17:15:14;7.00;99.90
12700;DHT22;6414;49.570;6.060;2023-04-06T17:18:00;7.10;99.90
12700;DHT22;6414;49.570;6.060;2023-04-06T17:20:46;7.00;99.90
12700;DHT22;6414;49.570;6.060;2023-04-06T17:23:32;7.00;99.90
12700;DHT22;6414;49.570;6.060;2023-04-06T17:26:18;7.00;99.90
12700;DHT22;6414;49.570;6.060;2023-04-06T17:29:05;7.10;99.90
12700;DHT22;6414;49.570;6.060;2023-04-06T17:31:51;7.10;99.90
12700;DHT22;6414;49.570;6.060;2023-04-06T17:34:37;7.10;99.90
12700;DHT22;6414;49.570;6.060;2023-04-06T17:37:23;7.10;99.90
12700;DHT22;6414;49.570;6.060;2023-04-06T17:40:11;7.10;99.90
12700;DHT22;6414;49.570;6.060;2023-04-06T17:42:57;7.00;99.90
12700;DHT22;6414;49.570;6.060;2023-04-06T17:45:43;7.00;99.90
12700;DHT22;6414;49.570;6.060;2023-04-06T17:48:29;7.00;99.90
12700;DHT22;6414;49.570;6.060;2023-04-06T17:51:15;6.90;99.90
12700;DHT22;6414;49.570;6.060;2023-04-06T17:54:02;7.00;99.90
12700;DHT22;6414;49.570;6.060;2023-04-06T17:56:48;7.00;99.90
12700;DHT22;6414;49.570;6.060;2023-04-06T17:59:34;7.00;99.90
12700;DHT22;6414;49.570;6.060;2023-04-06T18:02:20;7.10;99.90
12700;DHT22;6414;49.570;6.060;2023-04-06T18:05:07;7.10;99.90
12700;DHT22;6414;49.570;6.060;2023-04-06T18:07:53;7.10;99.90
12700;DHT22;6414;49.570;6.060;2023-04-06T18:10:39;7.10;99.90